Edisto Island, South Carolina
Current Conditions -  °F | °C
As of 2:35 PM on Thursday 23 Oct 2014 (Local Time) from KJZI Reporting Station
Clear Clear  
Wind Chill: 70°   Ceiling: Unl
Heat Index: 70°   Visibility: 10mi
Dew Point: 46°   Wind: 6mph
Humidity: 43%   Direction: 280°W
Pressure: 30.01"   Gusts: NA
Location:  32.56°N, 80.28°W
Report Text: KJZI 231835Z AUTO 28005KT 10SM CLR 21/08 A3001 RMK A02 P000
Loading
Personal Weather Stations






























Interactive Weather Map
Tropical Storm Tracking
New forecast layout! Learn more

10-Day Weather Forecast

Advertisements
Track Severe Weather on mobile